»·PEaware :: FDX457 KSFO-KPHX

FDX457 :: KSFO-KPHX

FLIGHT INFORMATION

Flight Status: Arrived
Operator:
Federal Express
More flights by this operator :: More flights under this callsign
Pilot: Alan S. (10569)
Aircraft: BOEING 757-200
(B752)
More flights by this aircraft type
Origin: KSFO San Francisco Intl
United States
Destination: KPHX Phoenix Sky Harbor Intl
United States
More flights between these airports :: More routes between these airports
Route: +WESLA3 LOSHN BOILE BLH HYDRR1
File this flight plan on PilotEdge
Remarks: FEDEX
Altitude:
(Current/Filed)
31,000ft
Speed:
(Current/Filed)
489kts
Departed: 30-Sep-18 06:33 PM
Arrived: 30-Sep-18 08:08 PM
Distance/Time
Traveled:
565nm/1:35
Distance/Time
To Go:
Arrived

Flight Plot

Page will automatically refresh every two minutes.

Flight plan parsing failed; only flown route is shown


Map Options




Map Legend


Flown Route
Filed Route
Departure Airport
Arrival Airport
Navaid (VOR, NDB)
Fix

Horizontal Profiles

Position Reports

Time Latitude Longitude Heading Altitude Ground
Speed
30-Sep-18 17:05 37.636633 -122.387988 59 24ft 0kts
30-Sep-18 17:06 37.636633 -122.387988 59 24ft 0kts
30-Sep-18 17:07 37.636633 -122.387988 59 24ft 0kts
30-Sep-18 17:08 37.636633 -122.387988 59 24ft 0kts
30-Sep-18 17:09 37.636633 -122.387988 59 23ft 0kts
30-Sep-18 17:10 37.636633 -122.387988 59 23ft 0kts
30-Sep-18 17:11 37.636633 -122.387988 59 23ft 0kts
30-Sep-18 17:12 37.636633 -122.387988 59 23ft 0kts
30-Sep-18 17:13 37.636633 -122.387988 59 23ft 0kts
30-Sep-18 17:14 37.636633 -122.387988 59 23ft 0kts
30-Sep-18 17:15 37.636633 -122.387988 59 23ft 0kts
30-Sep-18 17:16 37.636633 -122.387988 59 23ft 0kts
30-Sep-18 17:17 37.636633 -122.387988 59 23ft 0kts
30-Sep-18 17:18 37.636633 -122.387988 59 23ft 0kts
30-Sep-18 17:19 37.636633 -122.387988 59 23ft 0kts
30-Sep-18 17:20 37.636633 -122.387988 59 23ft 0kts
30-Sep-18 17:21 37.636633 -122.387988 59 23ft 0kts
30-Sep-18 17:22 37.636633 -122.387988 59 23ft 0kts
30-Sep-18 17:23 37.636633 -122.387988 59 23ft 0kts
30-Sep-18 17:24 37.636633 -122.387988 59 23ft 0kts
30-Sep-18 17:25 37.636633 -122.387988 59 23ft 0kts
30-Sep-18 17:26 37.636633 -122.387988 59 23ft 0kts
30-Sep-18 17:27 37.636633 -122.387988 59 23ft 0kts
30-Sep-18 17:28 37.636633 -122.387988 59 23ft 0kts
30-Sep-18 17:29 37.636633 -122.387988 59 23ft 0kts
30-Sep-18 17:30 37.636633 -122.387988 59 23ft 0kts
30-Sep-18 17:31 37.636633 -122.387988 59 23ft 0kts
30-Sep-18 17:32 37.636633 -122.387988 59 23ft 0kts
30-Sep-18 17:33 37.636633 -122.387988 59 23ft 0kts
30-Sep-18 17:34 37.636633 -122.387988 59 23ft 0kts
30-Sep-18 17:35 37.636633 -122.387988 59 23ft 0kts
30-Sep-18 17:36 37.636633 -122.387988 59 23ft 0kts
30-Sep-18 17:37 37.636633 -122.387988 59 23ft 0kts
30-Sep-18 17:44 37.636633 -122.387988 60 23ft 0kts
30-Sep-18 17:45 37.636633 -122.387988 60 23ft 0kts
30-Sep-18 17:46 37.636633 -122.387988 60 23ft 0kts
30-Sep-18 17:47 37.636633 -122.387988 60 23ft 0kts
30-Sep-18 17:48 37.636633 -122.387988 60 23ft 0kts
30-Sep-18 17:49 37.636633 -122.387988 60 23ft 0kts
30-Sep-18 17:50 37.636633 -122.387988 60 23ft 0kts
30-Sep-18 17:51 37.636633 -122.387988 60 23ft 0kts
30-Sep-18 17:52 37.636633 -122.387988 60 23ft 0kts
30-Sep-18 17:53 37.636633 -122.387988 60 23ft 0kts
30-Sep-18 17:54 37.636633 -122.387988 60 23ft 0kts
30-Sep-18 17:55 37.636633 -122.387988 60 23ft 0kts
30-Sep-18 17:56 37.636633 -122.387988 60 23ft 0kts
30-Sep-18 17:57 37.636633 -122.387988 60 23ft 0kts
30-Sep-18 17:58 37.636633 -122.387988 60 23ft 0kts
30-Sep-18 17:59 37.636633 -122.387988 60 23ft 0kts
30-Sep-18 18:00 37.636633 -122.387988 60 23ft 0kts
30-Sep-18 18:01 37.636633 -122.387988 60 23ft 0kts
30-Sep-18 18:02 37.636633 -122.387988 60 23ft 0kts
30-Sep-18 18:03 37.636633 -122.387988 60 23ft 0kts
30-Sep-18 18:04 37.636633 -122.387988 60 23ft 0kts
30-Sep-18 18:05 37.636633 -122.387988 60 23ft 0kts
30-Sep-18 18:06 37.636633 -122.387988 60 23ft 0kts
30-Sep-18 18:07 37.636633 -122.387988 60 23ft 0kts
30-Sep-18 18:08 37.636633 -122.387988 60 23ft 0kts
30-Sep-18 18:09 37.636633 -122.387988 60 23ft 0kts
30-Sep-18 18:10 37.636633 -122.387988 60 23ft 0kts
30-Sep-18 18:11 37.636633 -122.387988 60 23ft 0kts
30-Sep-18 18:12 37.636633 -122.387988 60 23ft 0kts
30-Sep-18 18:13 37.636633 -122.387988 60 23ft 0kts
30-Sep-18 18:14 37.636633 -122.387988 60 23ft 0kts
30-Sep-18 18:15 37.636633 -122.387988 60 23ft 0kts
30-Sep-18 18:16 37.636633 -122.387988 60 23ft 0kts
30-Sep-18 18:17 37.636633 -122.387988 60 23ft 0kts
30-Sep-18 18:18 37.636631 -122.387992 59 23ft 0kts
30-Sep-18 18:19 37.636543 -122.388701 112 23ft 2kts
30-Sep-18 18:20 37.636969 -122.389201 147 23ft 2kts
30-Sep-18 18:21 37.637189 -122.389376 148 23ft 0kts
30-Sep-18 18:22 37.637189 -122.389376 148 23ft 0kts
30-Sep-18 18:23 37.636505 -122.388852 149 23ft 10kts
30-Sep-18 18:24 37.634590 -122.388747 231 23ft 7kts
30-Sep-18 18:25 37.633793 -122.391092 241 23ft 8kts
30-Sep-18 18:26 37.631604 -122.392149 245 23ft 11kts
30-Sep-18 18:27 37.629175 -122.390691 117 23ft 11kts
30-Sep-18 18:28 37.627811 -122.387455 118 23ft 10kts
30-Sep-18 18:29 37.626493 -122.384361 118 23ft 10kts
30-Sep-18 18:30 37.624820 -122.380315 118 23ft 13kts
30-Sep-18 18:31 37.622796 -122.375497 118 23ft 17kts
30-Sep-18 18:32 37.620284 -122.369492 117 23ft 21kts
30-Sep-18 18:33 37.617297 -122.362386 118 23ft 23kts
30-Sep-18 18:34 37.614621 -122.356774 173 23ft 11kts
30-Sep-18 18:35 37.617260 -122.366063 297 24ft 109kts
30-Sep-18 18:36 37.638548 -122.406742 306 1458ft 148kts
30-Sep-18 18:37 37.657876 -122.463559 288 2061ft 212kts
30-Sep-18 18:38 37.636554 -122.532321 196 5222ft 263kts
30-Sep-18 18:39 37.566797 -122.506612 164 8833ft 279kts
30-Sep-18 18:40 37.489866 -122.470615 149 10936ft 344kts
30-Sep-18 18:41 37.423112 -122.371238 132 13473ft 391kts
30-Sep-18 18:42 37.353813 -122.262765 133 16412ft 410kts
30-Sep-18 18:43 37.280847 -122.149523 134 19137ft 428kts
30-Sep-18 18:44 37.204480 -122.031470 134 21595ft 446kts
30-Sep-18 18:45 37.125521 -121.909844 135 23800ft 461kts
30-Sep-18 18:46 37.042888 -121.783032 135 25731ft 479kts
30-Sep-18 18:47 36.957640 -121.652727 136 27410ft 497kts
30-Sep-18 18:48 36.869969 -121.519216 137 29249ft 505kts
30-Sep-18 18:49 36.781444 -121.384970 137 30945ft 506kts
30-Sep-18 18:50 36.697978 -121.258829 138 30932ft 489kts
30-Sep-18 18:51 36.613107 -121.131119 138 30927ft 486kts
30-Sep-18 18:52 36.527878 -121.003333 139 30931ft 479kts
30-Sep-18 18:53 36.442751 -120.876225 139 30915ft 478kts
30-Sep-18 18:54 36.357575 -120.749504 139 30906ft 479kts
30-Sep-18 18:55 36.272268 -120.623023 139 30905ft 479kts
30-Sep-18 18:56 36.186880 -120.496927 139 30907ft 479kts
30-Sep-18 18:57 36.101411 -120.371167 139 30903ft 479kts
30-Sep-18 18:58 36.016898 -120.247297 139 30882ft 479kts
30-Sep-18 18:59 35.931339 -120.122341 139 30885ft 479kts
30-Sep-18 19:00 35.853851 -120.009584 139 30896ft 481kts
30-Sep-18 19:01 35.766641 -119.885207 140 30903ft 480kts
30-Sep-18 19:02 35.679629 -119.761744 140 30905ft 480kts
30-Sep-18 19:03 35.592298 -119.638279 140 30905ft 479kts
30-Sep-18 19:04 35.504953 -119.515243 140 30905ft 480kts
30-Sep-18 19:05 35.417011 -119.391804 140 30907ft 480kts
30-Sep-18 19:06 35.330288 -119.270513 140 30895ft 480kts
30-Sep-18 19:07 35.242863 -119.148671 140 30893ft 479kts
30-Sep-18 19:08 35.154882 -119.026502 140 30894ft 479kts
30-Sep-18 19:09 35.067413 -118.905454 140 30948ft 474kts
30-Sep-18 19:10 34.980643 -118.785831 139 31038ft 473kts
30-Sep-18 19:11 34.894951 -118.668098 139 31045ft 475kts
30-Sep-18 19:12 34.809383 -118.550895 138 31027ft 476kts
30-Sep-18 19:13 34.721958 -118.431566 138 30984ft 476kts
30-Sep-18 19:14 34.645103 -118.327007 139 30970ft 476kts
30-Sep-18 19:15 34.573215 -118.229496 139 30973ft 476kts
30-Sep-18 19:16 34.484990 -118.110197 139 30977ft 476kts
30-Sep-18 19:17 34.410375 -117.976689 114 30976ft 501kts
30-Sep-18 19:18 34.371824 -117.814075 112 30946ft 503kts
30-Sep-18 19:19 34.332937 -117.651876 112 30966ft 502kts
30-Sep-18 19:20 34.293830 -117.490146 112 30971ft 503kts
30-Sep-18 19:21 34.254891 -117.330131 113 30954ft 503kts
30-Sep-18 19:22 34.215720 -117.170200 113 30949ft 503kts
30-Sep-18 19:23 34.175873 -117.008527 112 30950ft 502kts
30-Sep-18 19:24 34.135980 -116.847642 112 30950ft 500kts
30-Sep-18 19:25 34.095876 -116.686895 112 30900ft 501kts
30-Sep-18 19:26 34.055649 -116.526636 112 30879ft 500kts
30-Sep-18 19:27 34.015111 -116.366173 112 30885ft 502kts
30-Sep-18 19:28 33.975283 -116.209452 113 30874ft 501kts
30-Sep-18 19:29 33.934366 -116.049401 113 30831ft 501kts
30-Sep-18 19:30 33.894422 -115.894069 112 30819ft 500kts
30-Sep-18 19:31 33.853363 -115.735345 112 30823ft 500kts
30-Sep-18 19:32 33.811738 -115.575378 113 30826ft 500kts
30-Sep-18 19:33 33.770091 -115.416255 112 30824ft 500kts
30-Sep-18 19:34 33.729228 -115.261069 113 30849ft 499kts
30-Sep-18 19:35 33.687217 -115.102677 113 30872ft 497kts
30-Sep-18 19:36 33.645370 -114.945543 112 30873ft 493kts
30-Sep-18 19:37 33.603528 -114.789087 112 30874ft 493kts
30-Sep-18 19:38 33.570615 -114.630536 107 29369ft 480kts
30-Sep-18 19:39 33.541330 -114.479772 107 27508ft 457kts
30-Sep-18 19:40 33.513309 -114.337035 107 25805ft 444kts
30-Sep-18 19:41 33.485385 -114.195740 107 24132ft 431kts
30-Sep-18 19:42 33.458100 -114.058606 107 22876ft 417kts
30-Sep-18 19:43 33.430678 -113.922095 107 22772ft 424kts
30-Sep-18 19:44 33.403413 -113.786469 107 22615ft 420kts
30-Sep-18 19:45 33.375982 -113.650880 107 22618ft 419kts
30-Sep-18 19:46 33.348393 -113.515273 107 21811ft 426kts
30-Sep-18 19:47 33.323359 -113.380110 105 19892ft 407kts
30-Sep-18 19:48 33.301605 -113.254500 105 18174ft 390kts
30-Sep-18 19:49 33.282763 -113.128369 103 17351ft 383kts
30-Sep-18 19:50 33.276169 -112.999684 91 16020ft 399kts
30-Sep-18 19:51 33.279506 -112.872162 90 15720ft 381kts
30-Sep-18 19:52 33.285998 -112.746247 83 15721ft 383kts
30-Sep-18 19:53 33.298582 -112.628018 85 15320ft 349kts
30-Sep-18 19:54 33.309195 -112.515082 86 13952ft 331kts
30-Sep-18 19:55 33.318970 -112.408742 86 12945ft 317kts
30-Sep-18 19:56 33.328157 -112.308154 86 11947ft 313kts
30-Sep-18 19:57 33.337395 -112.206476 86 10741ft 305kts
30-Sep-18 19:58 33.346114 -112.109505 85 9525ft 275kts
30-Sep-18 19:59 33.346705 -112.021053 92 8318ft 267kts
30-Sep-18 20:00 33.345700 -111.931982 90 7137ft 268kts
30-Sep-18 20:01 33.348481 -111.842750 89 5951ft 269kts
30-Sep-18 20:02 33.352403 -111.754768 88 5039ft 249kts
30-Sep-18 20:03 33.392848 -111.705498 350 4479ft 224kts
30-Sep-18 20:04 33.427702 -111.752086 271 4051ft 182kts
30-Sep-18 20:05 33.428387 -111.812070 269 4048ft 182kts
30-Sep-18 20:06 33.428529 -111.872616 266 3200ft 187kts
30-Sep-18 20:07 33.428717 -111.929059 268 2254ft 146kts
30-Sep-18 20:08 33.428740 -111.972021 266 1592ft 129kts
30-Sep-18 20:09 33.428816 -112.014157 269 1121ft 87kts
30-Sep-18 20:10 33.427861 -112.021269 111 1120ft 9kts
30-Sep-18 20:11 33.427224 -112.017390 178 1120ft 11kts
30-Sep-18 20:12 33.424441 -112.017384 178 1120ft 11kts
30-Sep-18 20:13 33.423046 -112.016512 135 1120ft 0kts

Navigation Log

Ident Type
Flight plan parsing failed, navigation log unavailable